x

Santa Monica Basin - 33nm Wsw Of Santa Monica, Ca (46025) Wave Buoy

1:50 - Thu 24th Apr 2014 All times are PDT. -7 hours from GMT.

  • Sig Wave height 3.6ft
  • Swell Direction
  • Peak Period 14s
  • Average Period 7s
  • Wind
    7mph, 9mph gusts
  • Sea Temp 64°f
  • Luft Temp 61°f
  • Sea Pressure 1014.6mb
  • Santa Monica Basin - 33nm Wsw Of Santa Monica, Ca
  • Santa Monica Basin - 33nm Wsw Of Santa Monica, Ca

More Historic Weather Station data

Upgrade to MSW Pro to gain access to the past 30 days of data for over 8000 Wavebouys and Weather Stations around the globe.

Join Pro

Comparision Forecast

View Surf forecast
   
Do 04/24 1:50 3.5ft 14s 7s 7 9 mph 1014.6mb 64f 61f
12:50 3.5ft 11s 6s 4 7 mph 1015.3mb 63f 62f
11:50 3.5ft 12s 7s 2
mph
1015.6mb 62f 62f
10:50 3.5ft 11s 7s 2 4 mph 1015.7mb 61f 61f
9:50 3.5ft 8s 7s 4 7 mph 1015.6mb 61f 60f
8:50 3.5ft 12s 7s 7
mph
1015.3mb 60f 60f
7:50 4.5ft 11s 7s 7 9 mph 1014.8mb 60f 60f
6:50 4.5ft 11s 6s 7 9 mph 1014mb 60f 59f
5:50 4.5ft 8s 6s 4
mph
1013.7mb 60f 60f
4:50 4.5ft 8s 6s 4
mph
1013.2mb 60f 60f
3:50 5ft 12s 6s 2 4 mph 1013.1mb 61f 60f
2:50 5ft 6s 6s 4 7 mph 1012.9mb 61f 60f
1:50 5ft 7s 6s 4
mph
1013.3mb 61f 60f
12:50 5ft 7s 6s 7
mph
1013.6mb 61f 61f
Mi 04/23 11:50 5ft 7s 6s 7 9 mph 1013.5mb 61f 60f
10:50 5ft 8s 6s 7
mph
1013.4mb 61f 60f
9:50 5ft 7s 6s 2
mph
1013.3mb 61f 60f
8:50 5ft 7s 6s 7
mph
1012.9mb 61f 60f
7:50 5ft 7s 6s 9 11 mph 1012.3mb 61f 60f
6:50 5ft 6s 6s 11 13 mph 1012.1mb 61f 60f
5:50 4.5ft 6s 5s 9 11 mph 1012.4mb 62f 61f
4:50 4.5ft 6s 5s 9 11 mph 1012.5mb 62f 61f
3:50 4.5ft 6s 6s 7 9 mph 1013.2mb 61f 61f
2:50 4.5ft 6s 6s 9 11 mph 1014mb 61f 61f
1:50 5ft 12s 6s 9 11 mph 1014.6mb 61f 60f
12:50 5ft 7s 6s 11
mph
1014.8mb 61f 60f
11:50 5ft 7s 6s 9 11 mph 1015.3mb 61f 59f
10:50 5ft 12s 6s 7 9 mph 1015.2mb 61f 59f
9:50 5ft 8s 6s 7 9 mph 1014.9mb 60f 58f
8:50 5ft 12s 6s 13 16 mph 1014.7mb 60f 58f
7:50 5.5ft 8s 6s 16 18 mph 1014.1mb 60f 59f
6:50 5.5ft 10s 6s 16 18 mph 1013.5mb 60f 58f
5:50 6ft 9s 6s 13 16 mph 1013mb 61f 59f
4:50 6ft 8s 6s 13 16 mph 1012.7mb 60f 59f
3:50 6ft 12s 6s 13 16 mph 1012.8mb 61f 60f
2:50 6ft 7s 6s 13 18 mph 1012.9mb 61f 60f
1:50 6.5ft 13s 6s 11 13 mph 1013.2mb 61f 60f
12:50 7ft 7s 6s 13 16 mph 1013.3mb 61f 60f
Di 04/22 11:50 8ft 7s 6s 13 18 mph 1013.2mb 61f 60f
10:50 7ft 8s 6s 11 18 mph 1013.1mb 61f 60f
9:50 7ft 8s 6s 22 29 mph 1012.3mb 61f 60f
8:50 7ft 8s 6s 9 13 mph 1012.6mb 61f 61f
7:50 7ft 7s 6s 9 11 mph 1011.9mb 61f 61f
6:50 7ft 7s 6s 13 16 mph 1012mb 62f 60f
5:50 6ft 8s 6s 20 22 mph 1012.1mb 62f 59f
4:50 6.5ft 8s 6s 18 22 mph 1012.7mb 62f 60f
2:50 5.5ft 6s 6s 11 13 mph 1013.7mb 62f 60f
1:50 5.5ft 13s 6s 13 18 mph 1014.2mb 62f 59f
12:50 5.5ft 12s 6s 9 11 mph 1014.8mb 62f 60f
11:50 5ft 13s 6s 4 7 mph 1015.3mb 62f 59f
10:50 5.5ft 7s 6s 7 11 mph 1015.5mb 61f 58f
9:50 5ft 14s 7s 13 16 mph 1015.2mb 61f 58f
8:50 5ft 13s 7s 9 11 mph 1015.1mb 61f 58f
7:50 5ft 14s 7s 4
mph
1014.8mb 61f 58f
6:50 4ft 13s 7s 2 4 mph 1014.4mb 61f 58f
5:50 4ft 14s 7s 2 4 mph 1013.9mb 61f 58f
4:50 4ft 14s 8s 4 9 mph 1013.6mb 61f 58f
3:50 4ft 14s 7s 7 9 mph 1013.7mb 61f 58f
2:50 4.5ft 13s 7s  -  2 mph 1014.1mb 61f 58f
1:50 4ft 14s 8s 7 11 mph 1014.2mb 61f 59f
12:50 4ft 14s 8s 9
mph
1014.4mb 61f 58f
Mo 04/21 11:50 4ft 14s 8s 7 9 mph 1014.7mb 61f 58f
10:50 4ft 14s 9s  -  2 mph 1014.8mb 61f 59f
9:50 3.5ft 15s 8s 4 7 mph 1015.3mb 61f 59f
8:50 3.5ft 14s 8s 4 7 mph 1014.7mb 61f 59f
7:50 3.5ft 15s 9s 7 9 mph 1014.3mb 61f 59f
6:50 4.5ft 15s 9s 7 9 mph 1014.4mb 62f 58f
5:50 4ft 14s 9s 7 9 mph 1014.5mb 63f 59f
4:50 4ft 15s 9s 4 7 mph 1014.7mb 62f 60f
3:50 4.5ft 15s 9s 7
mph
1015.4mb 63f 59f
2:50 4ft 14s 9s 7 9 mph 1016.1mb 62f 59f
1:50 4.5ft 15s 9s 7 9 mph 1016.7mb 62f 59f
12:50 4ft 14s 8s 7
mph
1017.3mb 62f 59f
11:50 4ft 15s 8s 7 9 mph 1017.9mb 62f 59f
10:50 4.5ft 15s 9s 7 9 mph 1017.7mb 61f 59f
9:50 4ft 15s 9s 9 11 mph 1017.5mb 61f 58f
8:50 4ft 16s 8s 7 11 mph 1017.4mb 61f 58f
7:50 4ft 15s 9s 7 11 mph 1017.1mb 61f 57f
6:50 4.5ft 15s 9s 9 11 mph 1016.8mb 61f 58f
5:50 4.5ft 15s 10s 7 11 mph 1016.4mb 60f 58f
4:50 5ft 16s 10s 7
mph
1016.1mb 61f 58f
3:50 5ft 15s 9s 2 4 mph 1016.4mb 61f 58f
2:50 4.5ft 15s 8s 7
mph
1016.3mb 61f 58f
12:50 4.5ft 15s 8s  -  2 mph 1017mb 61f 59f
So 04/20 11:50 4.5ft 16s 8s 2 4 mph 1016.9mb 61f 59f
10:50 3.5ft 16s 7s 2 4 mph 1016.8mb 61f 59f